sensor_id;sensor_type;location;lat;lon;timestamp;temperature;humidity
72206;DHT22;60111;48.286;7.812;2023-04-06T00:01:50;5.90;52.40
72206;DHT22;60111;48.286;7.812;2023-04-06T00:04:22;5.90;51.80
72206;DHT22;60111;48.286;7.812;2023-04-06T00:06:55;5.90;52.20
72206;DHT22;60111;48.286;7.812;2023-04-06T00:09:28;5.90;52.50
72206;DHT22;60111;48.286;7.812;2023-04-06T00:12:00;5.90;53.00
72206;DHT22;60111;48.286;7.812;2023-04-06T00:14:33;5.90;52.60
72206;DHT22;60111;48.286;7.812;2023-04-06T00:17:06;5.90;53.00
72206;DHT22;60111;48.286;7.812;2023-04-06T00:19:38;5.80;53.50
72206;DHT22;60111;48.286;7.812;2023-04-06T00:22:11;5.80;53.60
72206;DHT22;60111;48.286;7.812;2023-04-06T00:24:43;5.80;53.50
72206;DHT22;60111;48.286;7.812;2023-04-06T00:27:16;5.70;53.40
72206;DHT22;60111;48.286;7.812;2023-04-06T00:29:49;5.70;53.60
72206;DHT22;60111;48.286;7.812;2023-04-06T00:32:21;5.70;53.40
72206;DHT22;60111;48.286;7.812;2023-04-06T00:34:54;5.70;53.20
72206;DHT22;60111;48.286;7.812;2023-04-06T00:37:26;5.20;54.40
72206;DHT22;60111;48.286;7.812;2023-04-06T00:39:59;5.30;54.60
72206;DHT22;60111;48.286;7.812;2023-04-06T00:42:32;5.30;54.60
72206;DHT22;60111;48.286;7.812;2023-04-06T00:45:05;5.20;54.70
72206;DHT22;60111;48.286;7.812;2023-04-06T00:47:37;5.20;55.10
72206;DHT22;60111;48.286;7.812;2023-04-06T00:50:10;5.10;55.00
72206;DHT22;60111;48.286;7.812;2023-04-06T00:52:42;5.10;55.20
72206;DHT22;60111;48.286;7.812;2023-04-06T00:55:15;5.10;55.10
72206;DHT22;60111;48.286;7.812;2023-04-06T00:57:48;5.00;55.50
72206;DHT22;60111;48.286;7.812;2023-04-06T01:00:21;5.00;55.90
72206;DHT22;60111;48.286;7.812;2023-04-06T01:02:54;5.00;55.80
72206;DHT22;60111;48.286;7.812;2023-04-06T01:05:27;5.00;56.10
72206;DHT22;60111;48.286;7.812;2023-04-06T01:07:59;5.00;55.90
72206;DHT22;60111;48.286;7.812;2023-04-06T01:10:32;5.10;55.80
72206;DHT22;60111;48.286;7.812;2023-04-06T01:13:05;5.00;56.20
72206;DHT22;60111;48.286;7.812;2023-04-06T01:15:38;4.90;56.00
72206;DHT22;60111;48.286;7.812;2023-04-06T01:18:11;4.90;56.30
72206;DHT22;60111;48.286;7.812;2023-04-06T01:20:44;5.00;55.90
72206;DHT22;60111;48.286;7.812;2023-04-06T01:23:16;5.00;55.80
72206;DHT22;60111;48.286;7.812;2023-04-06T01:25:49;4.90;55.80
72206;DHT22;60111;48.286;7.812;2023-04-06T01:28:21;5.00;56.10
72206;DHT22;60111;48.286;7.812;2023-04-06T01:30:54;4.90;55.80
72206;DHT22;60111;48.286;7.812;2023-04-06T01:33:26;5.10;55.70
72206;DHT22;60111;48.286;7.812;2023-04-06T01:35:59;5.00;54.90
72206;DHT22;60111;48.286;7.812;2023-04-06T01:38:32;5.00;53.80
72206;DHT22;60111;48.286;7.812;2023-04-06T01:41:05;5.00;53.70
72206;DHT22;60111;48.286;7.812;2023-04-06T01:43:38;5.20;54.50
72206;DHT22;60111;48.286;7.812;2023-04-06T01:46:11;5.30;53.50
72206;DHT22;60111;48.286;7.812;2023-04-06T01:48:44;5.30;53.40
72206;DHT22;60111;48.286;7.812;2023-04-06T01:51:16;5.30;53.40
72206;DHT22;60111;48.286;7.812;2023-04-06T01:53:49;5.20;53.50
72206;DHT22;60111;48.286;7.812;2023-04-06T01:56:21;5.10;54.10
72206;DHT22;60111;48.286;7.812;2023-04-06T01:58:54;5.10;54.30
72206;DHT22;60111;48.286;7.812;2023-04-06T02:01:27;5.10;54.00
72206;DHT22;60111;48.286;7.812;2023-04-06T02:04:00;5.00;54.30
72206;DHT22;60111;48.286;7.812;2023-04-06T02:06:32;4.90;54.50
72206;DHT22;60111;48.286;7.812;2023-04-06T02:09:05;4.70;55.30
72206;DHT22;60111;48.286;7.812;2023-04-06T02:11:37;4.80;55.60
72206;DHT22;60111;48.286;7.812;2023-04-06T02:14:10;4.80;55.00
72206;DHT22;60111;48.286;7.812;2023-04-06T02:16:43;4.80;55.60
72206;DHT22;60111;48.286;7.812;2023-04-06T02:19:15;4.80;54.60
72206;DHT22;60111;48.286;7.812;2023-04-06T02:21:48;4.80;54.70
72206;DHT22;60111;48.286;7.812;2023-04-06T02:24:21;4.90;54.40
72206;DHT22;60111;48.286;7.812;2023-04-06T02:26:53;4.80;54.20
72206;DHT22;60111;48.286;7.812;2023-04-06T02:29:26;4.80;54.30
72206;DHT22;60111;48.286;7.812;2023-04-06T02:31:58;4.70;54.30
72206;DHT22;60111;48.286;7.812;2023-04-06T02:34:32;4.60;54.30
72206;DHT22;60111;48.286;7.812;2023-04-06T02:37:05;4.60;54.40
72206;DHT22;60111;48.286;7.812;2023-04-06T02:39:37;4.60;54.30
72206;DHT22;60111;48.286;7.812;2023-04-06T02:42:10;4.70;54.10
72206;DHT22;60111;48.286;7.812;2023-04-06T02:44:43;4.70;53.80
72206;DHT22;60111;48.286;7.812;2023-04-06T02:47:16;4.70;53.70
72206;DHT22;60111;48.286;7.812;2023-04-06T02:49:48;4.70;53.70
72206;DHT22;60111;48.286;7.812;2023-04-06T02:52:21;4.80;53.90
72206;DHT22;60111;48.286;7.812;2023-04-06T02:55:13;4.80;53.80
72206;DHT22;60111;48.286;7.812;2023-04-06T02:57:46;4.80;54.10
72206;DHT22;60111;48.286;7.812;2023-04-06T03:00:19;4.80;54.60
72206;DHT22;60111;48.286;7.812;2023-04-06T03:02:52;4.70;54.20
72206;DHT22;60111;48.286;7.812;2023-04-06T03:05:24;4.60;54.60
72206;DHT22;60111;48.286;7.812;2023-04-06T03:07:57;4.70;54.50
72206;DHT22;60111;48.286;7.812;2023-04-06T03:10:37;4.70;54.40
72206;DHT22;60111;48.286;7.812;2023-04-06T03:13:10;4.70;54.20
72206;DHT22;60111;48.286;7.812;2023-04-06T03:15:42;4.70;54.60
72206;DHT22;60111;48.286;7.812;2023-04-06T03:18:15;4.60;54.90
72206;DHT22;60111;48.286;7.812;2023-04-06T03:20:47;4.50;55.30
72206;DHT22;60111;48.286;7.812;2023-04-06T03:23:20;4.30;55.30
72206;DHT22;60111;48.286;7.812;2023-04-06T03:25:53;4.40;55.60
72206;DHT22;60111;48.286;7.812;2023-04-06T03:28:25;4.50;55.60
72206;DHT22;60111;48.286;7.812;2023-04-06T03:30:58;4.50;55.50
72206;DHT22;60111;48.286;7.812;2023-04-06T03:33:31;4.40;55.60
72206;DHT22;60111;48.286;7.812;2023-04-06T03:36:04;4.40;55.50
72206;DHT22;60111;48.286;7.812;2023-04-06T03:38:36;4.50;55.40
72206;DHT22;60111;48.286;7.812;2023-04-06T03:41:09;4.50;55.40
72206;DHT22;60111;48.286;7.812;2023-04-06T03:44:02;4.40;55.50
72206;DHT22;60111;48.286;7.812;2023-04-06T03:46:35;4.40;55.40
72206;DHT22;60111;48.286;7.812;2023-04-06T03:49:08;4.40;55.30
72206;DHT22;60111;48.286;7.812;2023-04-06T03:51:41;4.30;55.60
72206;DHT22;60111;48.286;7.812;2023-04-06T03:54:13;4.30;55.30
72206;DHT22;60111;48.286;7.812;2023-04-06T03:56:47;4.30;56.00
72206;DHT22;60111;48.286;7.812;2023-04-06T03:59:20;4.20;55.90
72206;DHT22;60111;48.286;7.812;2023-04-06T04:01:53;4.30;55.80
72206;DHT22;60111;48.286;7.812;2023-04-06T04:04:25;4.30;55.50
72206;DHT22;60111;48.286;7.812;2023-04-06T04:06:58;4.30;55.80
72206;DHT22;60111;48.286;7.812;2023-04-06T04:09:30;4.30;56.00
72206;DHT22;60111;48.286;7.812;2023-04-06T04:12:03;4.30;55.70
72206;DHT22;60111;48.286;7.812;2023-04-06T04:14:36;4.20;55.70
72206;DHT22;60111;48.286;7.812;2023-04-06T04:17:08;4.10;55.90
72206;DHT22;60111;48.286;7.812;2023-04-06T04:19:41;4.10;56.50
72206;DHT22;60111;48.286;7.812;2023-04-06T04:22:13;4.20;56.50
72206;DHT22;60111;48.286;7.812;2023-04-06T04:24:46;4.20;56.60
72206;DHT22;60111;48.286;7.812;2023-04-06T04:27:19;4.20;56.40
72206;DHT22;60111;48.286;7.812;2023-04-06T04:29:52;4.20;56.00
72206;DHT22;60111;48.286;7.812;2023-04-06T04:32:24;4.10;56.00
72206;DHT22;60111;48.286;7.812;2023-04-06T04:34:58;4.00;56.20
72206;DHT22;60111;48.286;7.812;2023-04-06T04:37:30;3.90;56.90
72206;DHT22;60111;48.286;7.812;2023-04-06T04:40:03;3.90;56.70
72206;DHT22;60111;48.286;7.812;2023-04-06T04:42:36;3.80;56.80
72206;DHT22;60111;48.286;7.812;2023-04-06T04:45:09;3.90;56.70
72206;DHT22;60111;48.286;7.812;2023-04-06T04:47:42;3.90;57.00
72206;DHT22;60111;48.286;7.812;2023-04-06T04:50:14;3.90;57.10
72206;DHT22;60111;48.286;7.812;2023-04-06T04:52:47;3.80;57.20
72206;DHT22;60111;48.286;7.812;2023-04-06T04:55:19;3.70;57.30
72206;DHT22;60111;48.286;7.812;2023-04-06T04:57:52;3.80;56.90
72206;DHT22;60111;48.286;7.812;2023-04-06T05:00:25;3.70;57.30
72206;DHT22;60111;48.286;7.812;2023-04-06T05:02:57;3.80;57.30
72206;DHT22;60111;48.286;7.812;2023-04-06T05:05:30;3.80;57.10
72206;DHT22;60111;48.286;7.812;2023-04-06T05:08:03;3.70;56.90
72206;DHT22;60111;48.286;7.812;2023-04-06T05:10:36;3.60;57.90
72206;DHT22;60111;48.286;7.812;2023-04-06T05:13:08;3.70;58.00
72206;DHT22;60111;48.286;7.812;2023-04-06T05:15:41;3.80;58.10
72206;DHT22;60111;48.286;7.812;2023-04-06T05:18:14;3.90;57.70
72206;DHT22;60111;48.286;7.812;2023-04-06T05:20:47;3.90;57.40
72206;DHT22;60111;48.286;7.812;2023-04-06T05:23:21;3.80;57.20
72206;DHT22;60111;48.286;7.812;2023-04-06T05:25:53;3.80;57.40
72206;DHT22;60111;48.286;7.812;2023-04-06T05:28:26;3.70;58.00
72206;DHT22;60111;48.286;7.812;2023-04-06T05:30:59;3.70;58.30
72206;DHT22;60111;48.286;7.812;2023-04-06T05:33:32;3.80;58.00
72206;DHT22;60111;48.286;7.812;2023-04-06T05:36:05;3.80;58.20
72206;DHT22;60111;48.286;7.812;2023-04-06T05:38:38;3.70;57.90
72206;DHT22;60111;48.286;7.812;2023-04-06T05:41:11;3.70;58.00
72206;DHT22;60111;48.286;7.812;2023-04-06T05:43:43;3.70;58.20
72206;DHT22;60111;48.286;7.812;2023-04-06T05:46:16;3.70;58.10
72206;DHT22;60111;48.286;7.812;2023-04-06T05:48:49;3.60;58.20
72206;DHT22;60111;48.286;7.812;2023-04-06T05:51:21;3.50;58.30
72206;DHT22;60111;48.286;7.812;2023-04-06T05:53:54;3.60;58.30
72206;DHT22;60111;48.286;7.812;2023-04-06T05:56:27;3.70;58.00
72206;DHT22;60111;48.286;7.812;2023-04-06T05:59:01;3.70;58.20
72206;DHT22;60111;48.286;7.812;2023-04-06T06:01:34;3.70;58.50
72206;DHT22;60111;48.286;7.812;2023-04-06T06:04:06;3.90;57.80
72206;DHT22;60111;48.286;7.812;2023-04-06T06:06:39;4.00;57.80
72206;DHT22;60111;48.286;7.812;2023-04-06T06:09:11;4.00;57.90
72206;DHT22;60111;48.286;7.812;2023-04-06T06:11:44;4.10;57.40
72206;DHT22;60111;48.286;7.812;2023-04-06T06:14:17;4.10;57.60
72206;DHT22;60111;48.286;7.812;2023-04-06T06:16:50;4.10;57.70
72206;DHT22;60111;48.286;7.812;2023-04-06T06:19:22;4.20;58.00
72206;DHT22;60111;48.286;7.812;2023-04-06T06:21:55;4.30;58.10
72206;DHT22;60111;48.286;7.812;2023-04-06T06:27:21;4.30;58.20
72206;DHT22;60111;48.286;7.812;2023-04-06T06:29:54;4.40;58.60
72206;DHT22;60111;48.286;7.812;2023-04-06T06:32:27;4.50;57.50
72206;DHT22;60111;48.286;7.812;2023-04-06T06:34:59;4.60;57.60
72206;DHT22;60111;48.286;7.812;2023-04-06T06:37:33;4.80;56.50
72206;DHT22;60111;48.286;7.812;2023-04-06T06:40:06;4.90;57.00
72206;DHT22;60111;48.286;7.812;2023-04-06T06:42:39;5.00;56.00
72206;DHT22;60111;48.286;7.812;2023-04-06T06:45:12;5.10;55.60
72206;DHT22;60111;48.286;7.812;2023-04-06T06:47:44;5.20;55.90
72206;DHT22;60111;48.286;7.812;2023-04-06T06:50:17;5.30;55.30
72206;DHT22;60111;48.286;7.812;2023-04-06T06:52:49;5.30;54.90
72206;DHT22;60111;48.286;7.812;2023-04-06T06:55:22;5.30;55.00
72206;DHT22;60111;48.286;7.812;2023-04-06T06:57:54;5.40;55.00
72206;DHT22;60111;48.286;7.812;2023-04-06T07:00:27;5.50;55.20
72206;DHT22;60111;48.286;7.812;2023-04-06T07:03:00;5.50;54.80
72206;DHT22;60111;48.286;7.812;2023-04-06T07:05:33;5.60;55.70
72206;DHT22;60111;48.286;7.812;2023-04-06T07:08:06;5.70;54.40
72206;DHT22;60111;48.286;7.812;2023-04-06T07:10:38;5.80;54.10
72206;DHT22;60111;48.286;7.812;2023-04-06T07:13:11;6.00;54.40
72206;DHT22;60111;48.286;7.812;2023-04-06T07:15:44;6.20;54.60
72206;DHT22;60111;48.286;7.812;2023-04-06T07:18:17;6.30;53.90
72206;DHT22;60111;48.286;7.812;2023-04-06T07:20:50;6.40;54.30
72206;DHT22;60111;48.286;7.812;2023-04-06T07:23:23;6.70;53.40
72206;DHT22;60111;48.286;7.812;2023-04-06T07:25:55;6.70;53.30
72206;DHT22;60111;48.286;7.812;2023-04-06T07:28:28;7.10;53.10
72206;DHT22;60111;48.286;7.812;2023-04-06T07:31:00;7.40;51.70
72206;DHT22;60111;48.286;7.812;2023-04-06T07:33:33;7.50;51.70
72206;DHT22;60111;48.286;7.812;2023-04-06T07:36:06;7.60;51.20
72206;DHT22;60111;48.286;7.812;2023-04-06T07:38:38;7.60;50.50
72206;DHT22;60111;48.286;7.812;2023-04-06T07:41:11;7.70;51.40
72206;DHT22;60111;48.286;7.812;2023-04-06T07:43:44;7.80;51.80
72206;DHT22;60111;48.286;7.812;2023-04-06T07:46:16;8.00;51.40
72206;DHT22;60111;48.286;7.812;2023-04-06T07:48:49;8.20;51.30
72206;DHT22;60111;48.286;7.812;2023-04-06T07:51:22;8.60;50.80
72206;DHT22;60111;48.286;7.812;2023-04-06T07:53:55;8.80;51.70
72206;DHT22;60111;48.286;7.812;2023-04-06T07:56:27;9.10;50.30
72206;DHT22;60111;48.286;7.812;2023-04-06T07:59:00;9.50;48.40
72206;DHT22;60111;48.286;7.812;2023-04-06T08:01:33;9.80;47.80
72206;DHT22;60111;48.286;7.812;2023-04-06T08:04:06;10.10;46.90
72206;DHT22;60111;48.286;7.812;2023-04-06T08:06:39;10.40;46.90
72206;DHT22;60111;48.286;7.812;2023-04-06T08:09:12;10.40;46.90
72206;DHT22;60111;48.286;7.812;2023-04-06T08:11:45;10.70;45.30
72206;DHT22;60111;48.286;7.812;2023-04-06T08:14:19;11.10;43.70
72206;DHT22;60111;48.286;7.812;2023-04-06T08:16:52;11.30;42.70
72206;DHT22;60111;48.286;7.812;2023-04-06T08:19:24;11.30;43.60
72206;DHT22;60111;48.286;7.812;2023-04-06T08:21:57;11.40;43.00
72206;DHT22;60111;48.286;7.812;2023-04-06T08:24:29;11.50;42.30
72206;DHT22;60111;48.286;7.812;2023-04-06T08:27:03;11.70;42.10
72206;DHT22;60111;48.286;7.812;2023-04-06T08:29:36;11.80;42.40
72206;DHT22;60111;48.286;7.812;2023-04-06T08:32:09;11.90;41.90
72206;DHT22;60111;48.286;7.812;2023-04-06T08:34:42;12.30;41.20
72206;DHT22;60111;48.286;7.812;2023-04-06T08:37:14;12.80;40.00
72206;DHT22;60111;48.286;7.812;2023-04-06T08:39:47;13.00;38.70
72206;DHT22;60111;48.286;7.812;2023-04-06T08:42:21;12.90;39.20
72206;DHT22;60111;48.286;7.812;2023-04-06T08:44:54;12.70;38.20
72206;DHT22;60111;48.286;7.812;2023-04-06T08:47:27;12.60;36.60
72206;DHT22;60111;48.286;7.812;2023-04-06T08:50:07;13.50;36.00
72206;DHT22;60111;48.286;7.812;2023-04-06T08:52:36;14.30;35.20
72206;DHT22;60111;48.286;7.812;2023-04-06T08:55:09;15.00;34.10
72206;DHT22;60111;48.286;7.812;2023-04-06T08:57:42;15.60;32.80
72206;DHT22;60111;48.286;7.812;2023-04-06T09:00:15;15.90;32.80
72206;DHT22;60111;48.286;7.812;2023-04-06T09:02:49;16.00;33.00
72206;DHT22;60111;48.286;7.812;2023-04-06T09:05:24;15.70;32.60
72206;DHT22;60111;48.286;7.812;2023-04-06T09:07:57;16.50;31.70
72206;DHT22;60111;48.286;7.812;2023-04-06T09:10:30;17.30;30.60
72206;DHT22;60111;48.286;7.812;2023-04-06T09:13:05;17.50;30.10
72206;DHT22;60111;48.286;7.812;2023-04-06T09:15:38;18.00;29.40
72206;DHT22;60111;48.286;7.812;2023-04-06T09:18:11;18.40;28.90
72206;DHT22;60111;48.286;7.812;2023-04-06T09:20:43;18.50;29.30
72206;DHT22;60111;48.286;7.812;2023-04-06T09:23:19;18.60;28.80
72206;DHT22;60111;48.286;7.812;2023-04-06T09:25:51;18.60;30.10
72206;DHT22;60111;48.286;7.812;2023-04-06T09:28:24;18.30;28.90
72206;DHT22;60111;48.286;7.812;2023-04-06T09:30:56;17.70;30.60
72206;DHT22;60111;48.286;7.812;2023-04-06T09:33:29;17.10;31.00
72206;DHT22;60111;48.286;7.812;2023-04-06T09:36:02;16.50;31.10
72206;DHT22;60111;48.286;7.812;2023-04-06T09:38:36;15.90;31.10
72206;DHT22;60111;48.286;7.812;2023-04-06T09:41:08;15.20;31.80
72206;DHT22;60111;48.286;7.812;2023-04-06T09:43:41;14.50;33.60
72206;DHT22;60111;48.286;7.812;2023-04-06T09:46:14;14.40;34.00
72206;DHT22;60111;48.286;7.812;2023-04-06T09:48:50;14.40;33.80
72206;DHT22;60111;48.286;7.812;2023-04-06T09:51:24;14.30;34.40
72206;DHT22;60111;48.286;7.812;2023-04-06T09:53:59;14.40;34.30
72206;DHT22;60111;48.286;7.812;2023-04-06T09:56:50;14.50;31.80
72206;DHT22;60111;48.286;7.812;2023-04-06T09:59:29;14.30;32.00
72206;DHT22;60111;48.286;7.812;2023-04-06T10:02:00;13.90;31.90
72206;DHT22;60111;48.286;7.812;2023-04-06T10:04:46;13.90;32.80
72206;DHT22;60111;48.286;7.812;2023-04-06T10:07:18;13.80;31.90
72206;DHT22;60111;48.286;7.812;2023-04-06T10:09:51;13.50;33.10
72206;DHT22;60111;48.286;7.812;2023-04-06T10:12:25;13.50;33.50
72206;DHT22;60111;48.286;7.812;2023-04-06T10:14:58;13.50;31.70
72206;DHT22;60111;48.286;7.812;2023-04-06T10:17:30;13.60;33.80
72206;DHT22;60111;48.286;7.812;2023-04-06T10:20:13;13.60;34.50
72206;DHT22;60111;48.286;7.812;2023-04-06T10:23:01;13.50;32.00
72206;DHT22;60111;48.286;7.812;2023-04-06T10:25:31;13.40;32.60
72206;DHT22;60111;48.286;7.812;2023-04-06T10:28:08;13.50;34.10
72206;DHT22;60111;48.286;7.812;2023-04-06T10:30:44;13.60;33.40
72206;DHT22;60111;48.286;7.812;2023-04-06T10:33:19;13.50;32.80
72206;DHT22;60111;48.286;7.812;2023-04-06T10:35:51;13.50;33.20
72206;DHT22;60111;48.286;7.812;2023-04-06T10:38:40;13.40;33.10
72206;DHT22;60111;48.286;7.812;2023-04-06T10:41:11;13.20;33.50
72206;DHT22;60111;48.286;7.812;2023-04-06T10:43:44;13.00;34.10
72206;DHT22;60111;48.286;7.812;2023-04-06T10:46:24;12.90;35.50
72206;DHT22;60111;48.286;7.812;2023-04-06T10:48:52;12.90;34.90
72206;DHT22;60111;48.286;7.812;2023-04-06T10:51:26;12.70;34.30
72206;DHT22;60111;48.286;7.812;2023-04-06T10:54:00;12.60;35.50
72206;DHT22;60111;48.286;7.812;2023-04-06T10:56:36;12.70;34.70
72206;DHT22;60111;48.286;7.812;2023-04-06T10:59:10;12.80;33.80
72206;DHT22;60111;48.286;7.812;2023-04-06T11:01:44;12.70;34.40
72206;DHT22;60111;48.286;7.812;2023-04-06T11:04:19;12.70;32.90
72206;DHT22;60111;48.286;7.812;2023-04-06T11:06:52;12.60;33.90
72206;DHT22;60111;48.286;7.812;2023-04-06T11:09:27;12.80;37.10
72206;DHT22;60111;48.286;7.812;2023-04-06T11:12:00;13.00;34.20
72206;DHT22;60111;48.286;7.812;2023-04-06T11:14:33;13.10;34.10
72206;DHT22;60111;48.286;7.812;2023-04-06T11:17:06;13.30;33.60
72206;DHT22;60111;48.286;7.812;2023-04-06T11:19:38;13.40;33.00
72206;DHT22;60111;48.286;7.812;2023-04-06T11:22:11;13.40;33.90
72206;DHT22;60111;48.286;7.812;2023-04-06T11:24:44;13.30;33.80
72206;DHT22;60111;48.286;7.812;2023-04-06T11:27:17;13.30;33.00
72206;DHT22;60111;48.286;7.812;2023-04-06T11:29:50;13.20;33.60
72206;DHT22;60111;48.286;7.812;2023-04-06T11:32:22;13.20;34.30
72206;DHT22;60111;48.286;7.812;2023-04-06T11:34:57;13.30;33.90
72206;DHT22;60111;48.286;7.812;2023-04-06T11:37:31;13.30;34.50
72206;DHT22;60111;48.286;7.812;2023-04-06T11:40:23;13.40;34.70
72206;DHT22;60111;48.286;7.812;2023-04-06T11:42:57;13.40;34.40
72206;DHT22;60111;48.286;7.812;2023-04-06T11:45:39;13.50;33.80
72206;DHT22;60111;48.286;7.812;2023-04-06T11:48:05;13.50;33.60
72206;DHT22;60111;48.286;7.812;2023-04-06T11:50:38;13.40;34.40
72206;DHT22;60111;48.286;7.812;2023-04-06T11:53:10;13.30;34.30
72206;DHT22;60111;48.286;7.812;2023-04-06T11:55:43;13.30;34.50
72206;DHT22;60111;48.286;7.812;2023-04-06T11:58:17;13.30;34.20
72206;DHT22;60111;48.286;7.812;2023-04-06T12:00:50;13.30;33.90
72206;DHT22;60111;48.286;7.812;2023-04-06T12:03:22;13.30;33.60
72206;DHT22;60111;48.286;7.812;2023-04-06T12:05:55;13.30;35.00
72206;DHT22;60111;48.286;7.812;2023-04-06T12:08:28;13.30;34.60
72206;DHT22;60111;48.286;7.812;2023-04-06T12:11:01;13.30;34.10
72206;DHT22;60111;48.286;7.812;2023-04-06T12:13:34;13.30;34.70
72206;DHT22;60111;48.286;7.812;2023-04-06T12:16:06;13.30;34.10
72206;DHT22;60111;48.286;7.812;2023-04-06T12:18:39;13.40;34.60
72206;DHT22;60111;48.286;7.812;2023-04-06T12:21:12;13.50;34.80
72206;DHT22;60111;48.286;7.812;2023-04-06T12:23:44;13.50;34.20
72206;DHT22;60111;48.286;7.812;2023-04-06T12:26:17;13.50;34.30
72206;DHT22;60111;48.286;7.812;2023-04-06T12:28:49;13.50;32.80
72206;DHT22;60111;48.286;7.812;2023-04-06T12:31:23;13.50;33.70
72206;DHT22;60111;48.286;7.812;2023-04-06T12:33:57;13.40;33.80
72206;DHT22;60111;48.286;7.812;2023-04-06T12:36:29;13.30;33.10
72206;DHT22;60111;48.286;7.812;2023-04-06T12:39:02;13.30;33.20
72206;DHT22;60111;48.286;7.812;2023-04-06T12:41:35;13.30;33.20
72206;DHT22;60111;48.286;7.812;2023-04-06T12:44:08;13.10;33.00
72206;DHT22;60111;48.286;7.812;2023-04-06T12:46:40;13.00;33.40
72206;DHT22;60111;48.286;7.812;2023-04-06T12:49:14;13.00;33.80
72206;DHT22;60111;48.286;7.812;2023-04-06T12:51:48;13.00;33.60
72206;DHT22;60111;48.286;7.812;2023-04-06T12:54:21;13.10;36.50
72206;DHT22;60111;48.286;7.812;2023-04-06T12:56:54;13.20;33.00
72206;DHT22;60111;48.286;7.812;2023-04-06T12:59:28;13.20;33.50
72206;DHT22;60111;48.286;7.812;2023-04-06T13:02:03;13.20;33.20
72206;DHT22;60111;48.286;7.812;2023-04-06T13:04:36;13.30;33.50
72206;DHT22;60111;48.286;7.812;2023-04-06T13:07:08;13.20;34.00
72206;DHT22;60111;48.286;7.812;2023-04-06T13:09:41;13.30;33.90
72206;DHT22;60111;48.286;7.812;2023-04-06T13:12:13;13.40;33.10
72206;DHT22;60111;48.286;7.812;2023-04-06T13:14:46;13.40;33.60
72206;DHT22;60111;48.286;7.812;2023-04-06T13:17:20;13.40;32.80
72206;DHT22;60111;48.286;7.812;2023-04-06T13:19:53;13.40;33.70
72206;DHT22;60111;48.286;7.812;2023-04-06T13:22:26;13.40;32.80
72206;DHT22;60111;48.286;7.812;2023-04-06T13:24:59;13.30;33.20
72206;DHT22;60111;48.286;7.812;2023-04-06T13:27:31;13.20;33.00
72206;DHT22;60111;48.286;7.812;2023-04-06T13:30:07;13.20;33.50
72206;DHT22;60111;48.286;7.812;2023-04-06T13:32:39;13.20;33.10
72206;DHT22;60111;48.286;7.812;2023-04-06T13:35:12;13.20;33.30
72206;DHT22;60111;48.286;7.812;2023-04-06T13:37:45;13.10;33.20
72206;DHT22;60111;48.286;7.812;2023-04-06T13:40:18;13.10;33.00
72206;DHT22;60111;48.286;7.812;2023-04-06T13:42:51;13.10;33.80
72206;DHT22;60111;48.286;7.812;2023-04-06T13:45:23;13.10;33.30
72206;DHT22;60111;48.286;7.812;2023-04-06T13:47:56;13.20;34.10
72206;DHT22;60111;48.286;7.812;2023-04-06T13:50:29;13.20;33.20
72206;DHT22;60111;48.286;7.812;2023-04-06T13:53:01;13.20;33.20
72206;DHT22;60111;48.286;7.812;2023-04-06T13:55:34;13.20;34.10
72206;DHT22;60111;48.286;7.812;2023-04-06T13:58:07;13.10;33.30
72206;DHT22;60111;48.286;7.812;2023-04-06T14:00:40;13.20;34.60
72206;DHT22;60111;48.286;7.812;2023-04-06T14:03:13;13.20;34.00
72206;DHT22;60111;48.286;7.812;2023-04-06T14:05:46;13.20;34.50
72206;DHT22;60111;48.286;7.812;2023-04-06T14:08:18;13.20;35.40
72206;DHT22;60111;48.286;7.812;2023-04-06T14:10:52;13.20;33.80
72206;DHT22;60111;48.286;7.812;2023-04-06T14:13:25;13.20;34.10
72206;DHT22;60111;48.286;7.812;2023-04-06T14:15:58;13.20;34.40
72206;DHT22;60111;48.286;7.812;2023-04-06T14:18:31;13.20;35.00
72206;DHT22;60111;48.286;7.812;2023-04-06T14:21:04;13.20;34.70
72206;DHT22;60111;48.286;7.812;2023-04-06T14:23:37;13.20;34.00
72206;DHT22;60111;48.286;7.812;2023-04-06T14:26:11;13.20;35.10
72206;DHT22;60111;48.286;7.812;2023-04-06T14:28:45;13.20;35.00
72206;DHT22;60111;48.286;7.812;2023-04-06T14:31:18;13.20;35.30
72206;DHT22;60111;48.286;7.812;2023-04-06T14:33:50;13.20;35.20
72206;DHT22;60111;48.286;7.812;2023-04-06T14:36:23;13.20;34.70
72206;DHT22;60111;48.286;7.812;2023-04-06T14:38:58;13.30;34.20
72206;DHT22;60111;48.286;7.812;2023-04-06T14:41:31;13.30;34.40
72206;DHT22;60111;48.286;7.812;2023-04-06T14:44:04;13.30;34.10
72206;DHT22;60111;48.286;7.812;2023-04-06T14:46:37;13.30;35.10
72206;DHT22;60111;48.286;7.812;2023-04-06T14:49:10;13.30;34.80
72206;DHT22;60111;48.286;7.812;2023-04-06T14:51:42;13.20;34.70
72206;DHT22;60111;48.286;7.812;2023-04-06T14:54:15;13.20;35.60
72206;DHT22;60111;48.286;7.812;2023-04-06T14:56:47;13.20;35.80
72206;DHT22;60111;48.286;7.812;2023-04-06T14:59:20;13.20;36.00
72206;DHT22;60111;48.286;7.812;2023-04-06T15:01:52;13.20;35.90
72206;DHT22;60111;48.286;7.812;2023-04-06T15:04:26;13.20;35.50
72206;DHT22;60111;48.286;7.812;2023-04-06T15:06:58;13.20;36.10
72206;DHT22;60111;48.286;7.812;2023-04-06T15:09:31;13.20;36.60
72206;DHT22;60111;48.286;7.812;2023-04-06T15:12:04;13.10;36.30
72206;DHT22;60111;48.286;7.812;2023-04-06T15:14:37;13.10;36.00
72206;DHT22;60111;48.286;7.812;2023-04-06T15:17:10;13.00;36.20
72206;DHT22;60111;48.286;7.812;2023-04-06T15:19:42;12.90;37.00
72206;DHT22;60111;48.286;7.812;2023-04-06T15:22:15;12.80;37.40
72206;DHT22;60111;48.286;7.812;2023-04-06T15:24:47;12.70;38.00
72206;DHT22;60111;48.286;7.812;2023-04-06T15:27:20;12.60;38.40
72206;DHT22;60111;48.286;7.812;2023-04-06T15:29:52;12.50;38.40
72206;DHT22;60111;48.286;7.812;2023-04-06T15:32:25;12.50;37.80
72206;DHT22;60111;48.286;7.812;2023-04-06T15:34:58;12.50;37.80
72206;DHT22;60111;48.286;7.812;2023-04-06T15:37:31;12.40;38.20
72206;DHT22;60111;48.286;7.812;2023-04-06T15:40:05;12.50;38.20
72206;DHT22;60111;48.286;7.812;2023-04-06T15:42:38;12.50;38.00
72206;DHT22;60111;48.286;7.812;2023-04-06T15:45:11;12.50;38.20
72206;DHT22;60111;48.286;7.812;2023-04-06T15:47:45;12.50;38.80
72206;DHT22;60111;48.286;7.812;2023-04-06T15:50:18;12.50;40.30
72206;DHT22;60111;48.286;7.812;2023-04-06T15:52:50;12.50;39.50
72206;DHT22;60111;48.286;7.812;2023-04-06T15:55:23;12.50;38.30
72206;DHT22;60111;48.286;7.812;2023-04-06T15:57:55;12.50;38.40
72206;DHT22;60111;48.286;7.812;2023-04-06T16:00:28;12.50;38.30
72206;DHT22;60111;48.286;7.812;2023-04-06T16:03:00;12.50;39.20
72206;DHT22;60111;48.286;7.812;2023-04-06T16:05:33;12.50;39.10
72206;DHT22;60111;48.286;7.812;2023-04-06T16:08:05;12.40;39.50
72206;DHT22;60111;48.286;7.812;2023-04-06T16:10:39;12.40;39.80
72206;DHT22;60111;48.286;7.812;2023-04-06T16:13:12;12.30;39.60
72206;DHT22;60111;48.286;7.812;2023-04-06T16:15:48;12.30;40.20
72206;DHT22;60111;48.286;7.812;2023-04-06T16:18:19;12.20;40.40